Tiempo atmosférico en la estación meteorológica de Cenicero, La Rioja (429 m.)

Fecha
DESCASC
Temp. máxima en grados centígrados (hora)
DESCASC
Temp. mínima en grados centígrados (hora)
DESCASC
Temp. media en grados centígrados
DESCASC
Racha de viento máxima en m/sg (hora)
DESCASC
Velocidad máxima media en intervalos de 10 minutos(hora)
DESCASC
Precipitaciones diarias en mm
DESCASC
Precipitaciones de 00:00 a 06:00 en mm
DESCASC
Precipitaciones de 06:00 a 12:00 en mm
DESCASC
Precipitaciones de 12:00 a 18:00 en mm
DESCASC
Precipitaciones de 18:00 a 24:00 en mm
DESCASC
17-08-2017 34.8 (18:00) 13.8 (07:30) 24.3 6.67 (18:20) 2.78 (14:00) 0 0 0 0 0
16-08-2017 30.9 (17:40) 18.5 (07:00) 24.7 7.5 (18:50) 3.61 (10:20) 0 0 0 0 0
15-08-2017 31.9 (17:20) 19.1 (00:00) 25.5 8.89 (06:00) 5.56 (08:20) 0 0 0 0 0
14-08-2017 33.9 (18:00) 16.6 (04:50) 25.3 10.28 (17:00) 5.28 (13:00) 0 0 0 0 0
13-08-2017 32.1 (18:30) 13.8 (00:00) 22.9 7.22 (18:10) 3.33 (14:50) 0 0 0 0 0
12-08-2017 31.4 (17:30) 9.4 (00:00) 20.4 7.78 (19:30) 4.44 (19:20) 0 0 0 0 0
11-08-2017 24.5 (17:40) 12 (00:00) 18.3 7.78 (16:50) 4.17 (01:30) 0 0 0 0 0
10-08-2017 21.1 (18:10) 11.9 (00:00) 16.5 10.56 (19:20) 5.28 (19:20) 0 0 0 0 0
09-08-2017 19.8 (17:20) 13.8 (00:00) 16.8 11.94 (16:00) 6.11 (16:40) 0 0 0 0 0
08-08-2017 22.7 (15:40) 15.4 (00:00) 19.1 9.17 (17:10) 5.28 (17:10) 0 0 0 0 0
07-08-2017 32.1 (19:10) 15 (00:00) 23.5 8.33 (21:00) 4.72 (21:10) 0 0 0 0 0
06-08-2017 27.8 (17:50) 16.4 (00:00) 22.1 6.67 (18:40) 3.61 (02:00) 0 0 0 0 0
05-08-2017 25.5 (13:40) 17.9 (00:00) 21.7 10 (15:20) 5.56 (19:00) 0 0 0 0 0
04-08-2017 36.3 (17:40) 19.1 (00:00) 27.7 8.06 (20:00) 4.17 (20:10) 0 0 0 0 0
03-08-2017 36.9 (18:20) 19.3 (00:00) 28.1 6.94 (23:10) 3.61 (10:30) 0 0 0 0 0
02-08-2017 34.3 (19:00) 16.3 (00:00) 25.3 7.5 (16:50) 3.89 (23:10) 0 0 0 0 0
01-08-2017 31 (18:10) 16.7 (00:00) 23.9 6.94 (18:50) 4.44 (18:50) 0 0 0 0 0
31-07-2017 30.2 (17:40) 17.8 (00:00) 24 7.22 (21:10) 4.44 (21:00) 0 0 0 0 0
30-07-2017 36 (16:40) 18.3 (00:00) 27.1 10.28 (19:50) 6.67 (19:50) 0 0 0 0 0
29-07-2017 37.2 (17:40) 15.9 (00:00) 26.6 8.33 (18:50) 5 (18:40) 0 0 0 0 0
28-07-2017 35.3 (18:10) 16.5 (00:00) 25.9 7.5 (20:20) 3.89 (20:10) 0 0 0 0 0
27-07-2017 35.4 (17:20) 13.5 (00:00) 24.5 7.5 (20:00) 4.17 (20:00) 0 0 0 0 0
26-07-2017 30.3 (16:50) 12.1 (00:00) 21.2 7.5 (20:00) 3.89 (20:00) 0 0 0 0 0
25-07-2017 22.2 (18:30) 15.3 (00:00) 18.8 8.06 (02:00) 4.72 (01:50) 0 0 0 0 0
24-07-2017 24.2 (13:10) 17.7 (00:00) 21 11.11 (18:00) 6.11 (16:40) 0 0 0 0 0
23-07-2017 28.3 (17:30) 16.3 (00:00) 22.3 8.06 (19:20) 4.17 (19:20) 0 0 0 0 0
22-07-2017 31.4 (17:50) 12.2 (00:00) 21.8 8.06 (18:10) 4.17 (18:10) 0 0 0 0 0

Gráficas

Temp. máximas Temp. mínimas Temp. medias Precipitaciones Rachas de viento máximas Velocidades máximas media en intervalos de 10 minutos

Datos horarios

Fecha y hora oficial Temperatura (ºC) Velocidad del viento (km/h) Dirección del viento Racha (km/h) Dirección de racha Precipitación (mm) Presión (hPa) Tendencia (hPa) Humedad (%)
2017-08-20 23:00:00 21.6 5 Sudoeste 15 Sudoeste 0 -- -- 38
2017-08-20 22:00:00 23.5 4 Sudoeste 13 Sudoeste 0 -- -- 34
2017-08-20 21:00:00 26.7 3 Noroeste 14 Norte 0 -- -- 31
2017-08-20 20:00:00 29.5 5 Noroeste 15 Norte 0 -- -- 25
2017-08-20 19:00:00 29.7 8 Norte 24 Oeste 0 -- -- 25
2017-08-20 18:00:00 31 10 Noroeste 22 Oeste 0 -- -- 24
2017-08-20 17:00:00 30.3 8 Oeste 23 Oeste 0 -- -- 22
2017-08-20 16:00:00 29 5 Oeste 16 Noroeste 0 -- -- 20
2017-08-20 15:00:00 27.2 6 Noroeste 17 Oeste 0 -- -- 22
2017-08-20 14:00:00 25.8 8 Oeste 16 Oeste 0 -- -- 17
2017-08-20 13:00:00 23.1 6 Noroeste 16 Noroeste 0 -- -- 33
2017-08-20 12:00:00 20.6 9 Noroeste 19 Oeste 0 -- -- 46
2017-08-20 11:00:00 18.2 8 Oeste 21 Oeste 0 -- -- 59
2017-08-20 10:00:00 15.9 10 Oeste 19 Oeste 0 -- -- 69
2017-08-20 09:00:00 14.6 9 Oeste 17 Sudoeste 0 -- -- 68
2017-08-20 08:00:00 12.5 6 Sudoeste 17 Sudoeste 0 -- -- 73
2017-08-20 07:00:00 12.5 7 Sudoeste 18 Oeste 0 -- -- 73
2017-08-20 06:00:00 13.4 7 Sudoeste 20 Sudoeste 0 -- -- 77
2017-08-20 05:00:00 14 10 Sudoeste 18 Sudoeste 0 -- -- 80
2017-08-20 04:00:00 14.4 6 Oeste 19 Oeste 0 -- -- 77
2017-08-20 03:00:00 15 8 Sudoeste 18 Sudoeste 0 -- -- 75
2017-08-20 02:00:00 15.5 8 Sudoeste 15 Sudoeste 0 -- -- 71
2017-08-20 01:00:00 16.4 8 Sudoeste 21 Oeste 0 -- -- 67
2017-08-20 00:00:00 17.3 10 Oeste 23 Oeste 0 -- -- 59
2017-08-19 23:00:00 18.1 7 Sudoeste 17 Sudoeste 0 -- -- 58
2017-08-19 22:00:00 19.3 11 Oeste 17 Oeste 0 -- -- 50
2017-08-19 21:00:00 21.4 8 Norte 17 Noroeste 0 -- -- 43
2017-08-19 20:00:00 24 12 Noroeste 26 Noroeste 0 -- -- 44
2017-08-19 19:00:00 26.1 12 Noroeste 25 Noroeste 0 -- -- 40
2017-08-19 18:00:00 27.2 12 Noroeste 22 Noroeste 0 -- -- 37
2017-08-19 17:00:00 27.6 9 Noroeste 21 Noroeste 0 -- -- 36
2017-08-19 16:00:00 27.4 11 Oeste 19 Oeste 0 -- -- 37
2017-08-19 15:00:00 26.3 12 Oeste 20 Oeste 0 -- -- 39
2017-08-19 14:00:00 25.1 7 Sur 37 Noroeste 0 -- -- 43
2017-08-19 13:00:00 23.7 4 Sudoeste 17 Noroeste 0 -- -- 46
2017-08-19 12:00:00 22.7 5 Noroeste 17 Noroeste 0 -- -- 51
2017-08-19 11:00:00 21 6 Oeste 12 Oeste 0 -- -- 58
2017-08-19 10:00:00 19.2 6 Oeste 10 Oeste 0 -- -- 72
2017-08-19 09:00:00 17.6 0 Calma 4 Noroeste 0 -- -- 81
2017-08-19 08:00:00 16.6 0 Calma 4 Noroeste 0 -- -- 83
2017-08-19 07:00:00 17.2 0 Calma 11 Oeste 0 -- -- 78
2017-08-19 06:00:00 17.9 6 Oeste 17 Sudoeste 0 -- -- 75
2017-08-19 05:00:00 17.4 11 Sudoeste 18 Sudoeste 0 -- -- 77
2017-08-19 04:00:00 16.9 5 Sur 12 Sudoeste 0 -- -- 78
2017-08-19 03:00:00 17.4 5 Sudoeste 13 Oeste 0 -- -- 75
2017-08-19 02:00:00 18 3 Oeste 14 Sudoeste 0 -- -- 74
2017-08-19 01:00:00 18.8 4 Oeste 12 Oeste 0 -- -- 71
2017-08-19 00:00:00 19.5 5 Oeste 9 Oeste 0 -- -- 69
2017-08-18 23:00:00 20.4 0 Calma 15 Norte 0 -- -- 65
2017-08-18 22:00:00 20.8 10 Norte 23 Norte 0 -- -- 62
2017-08-18 21:00:00 22.5 0 Calma 12 Norte 0 -- -- 55
2017-08-18 20:00:00 23.3 9 Norte 24 Norte 0 -- -- 54
2017-08-18 19:00:00 23.1 12 Norte 37 Norte 0 -- -- 60
2017-08-18 18:00:00 25.4 16 Norte 36 Norte 0 -- -- 54
2017-08-18 17:00:00 26.9 15 Norte 31 Noroeste 0 -- -- 48
2017-08-18 16:00:00 27.9 16 Noroeste 27 Oeste 0 -- -- 43
2017-08-18 15:00:00 27.5 10 Noroeste 25 Oeste 0 -- -- 45
2017-08-18 14:00:00 25.9 13 Oeste 29 Noroeste 0 -- -- 52
2017-08-18 13:00:00 23.9 15 Oeste 30 Oeste 0 -- -- 59
2017-08-18 12:00:00 22.3 13 Noroeste 33 Oeste 0 -- -- 64
2017-08-18 11:00:00 22.5 17 Oeste 30 Sudoeste 0 -- -- 65
2017-08-18 10:00:00 21.2 17 Oeste 30 Oeste 0 -- -- 68
2017-08-18 09:00:00 19.5 13 Oeste 24 Oeste 0 -- -- 75
2017-08-18 08:00:00 18.5 10 Oeste 19 Oeste 0 -- -- 80
2017-08-18 07:00:00 18.4 10 Sudoeste 22 Sudoeste 0 -- -- 82
2017-08-18 06:00:00 19.2 12 Sudoeste 26 Sudoeste 0 -- -- 79
2017-08-18 05:00:00 19.9 10 Sudoeste 20 Sudoeste 0 -- -- 74
2017-08-18 04:00:00 20.9 5 Sudoeste 13 Sur 0 -- -- 68
2017-08-18 03:00:00 21.6 5 Sudoeste 15 Sudoeste 0 -- -- 66
2017-08-18 02:00:00 22.3 5 Sudoeste 10 Sur 0 -- -- 64
2017-08-18 01:00:00 22.7 3 Oeste 7 Oeste 0 -- -- 64
2017-08-18 00:00:00 24.1 4 Oeste 14 Sudoeste 0 -- -- 60
2017-08-17 23:00:00 26.3 6 Sudoeste 14 Sudoeste 0 -- -- 52
2017-08-17 22:00:00 28.4 2 Sur 13 Nordeste 0 -- -- 42
2017-08-17 21:00:00 30.8 5 Este 17 Este 0 -- -- 38
2017-08-17 20:00:00 33.3 9 Nordeste 21 Sudeste 0 -- -- 32
2017-08-17 19:00:00 34.5 9 Este 24 Sudeste 0 -- -- 24
2017-08-17 18:00:00 34.8 6 Norte 19 Sudeste 0 -- -- 24
2017-08-17 17:00:00 34.2 4 Este 19 Este 0 -- -- 25
2017-08-17 16:00:00 33.1 7 Sudeste 18 Este 0 -- -- 27
2017-08-17 15:00:00 31.9 8 Sudeste 18 Este 0 -- -- 29
2017-08-17 14:00:00 30.3 10 Nordeste 22 Sudeste 0 -- -- 31
2017-08-17 13:00:00 28.2 4 Nordeste 10 Oeste 0 -- -- 35
2017-08-17 12:00:00 25.1 6 Noroeste 12 Noroeste 0 -- -- 40
2017-08-17 11:00:00 -- 5 Oeste 15 Oeste 0 -- -- --
2017-08-17 10:00:00 18.7 6 Noroeste 13 Noroeste 0 -- -- 61
2017-08-17 09:00:00 16.4 4 Noroeste 11 Oeste 0 -- -- 68
2017-08-17 08:00:00 13.8 6 Noroeste 10 Oeste 0 -- -- 76
2017-08-17 07:00:00 14.2 3 Oeste 8 Noroeste 0 -- -- 72
2017-08-17 06:00:00 14.6 5 Noroeste 9 Oeste 0 -- -- 72
2017-08-17 05:00:00 15.6 4 Oeste 9 Noroeste 0 -- -- 66
2017-08-17 04:00:00 16.8 5 Oeste 9 Noroeste 0 -- -- 60
2017-08-17 03:00:00 18 5 Oeste 10 Oeste 0 -- -- 55
2017-08-17 02:00:00 19.3 6 Sudoeste 17 Oeste 0 -- -- 49
2017-08-17 01:00:00 19.8 6 Sudoeste 21 Sur 0 -- -- 50
2017-08-17 00:00:00 20.7 13 Sudoeste 22 Sudoeste 0 -- -- 44
2017-08-16 23:00:00 21.9 5 Sudoeste 14 Sudoeste 0 -- -- 43
2017-08-16 22:00:00 23.7 4 Sudoeste 9 Oeste 0 -- -- 42
2017-08-16 21:00:00 25.6 4 Noroeste 19 Norte 0 -- -- 40
2017-08-16 20:00:00 26.7 10 Norte 24 Norte 0 -- -- 42
2017-08-16 19:00:00 28.4 13 Norte 27 Norte 0 -- -- 39
2017-08-16 18:00:00 30.2 9 Norte 21 Noroeste 0 -- -- 36
2017-08-16 17:00:00 30 8 Noroeste 19 Noroeste 0 -- -- 35
2017-08-16 16:00:00 29.4 11 Noroeste 19 Noroeste 0 -- -- 36
2017-08-16 15:00:00 28.9 7 Oeste 24 Oeste 0 -- -- 40
2017-08-16 14:00:00 27 5 Oeste 24 Oeste 0 -- -- 47
2017-08-16 13:00:00 25 11 Oeste 18 Oeste 0 -- -- 53
2017-08-16 12:00:00 23.3 7 Oeste 20 Oeste 0 -- -- 59
2017-08-16 11:00:00 22 10 Oeste 21 Oeste 0 -- -- 64
2017-08-16 10:00:00 20 12 Oeste 21 Oeste 0 -- -- 74
2017-08-16 09:00:00 19 11 Oeste 20 Oeste 0 -- -- 79
2017-08-16 08:00:00 18.6 10 Oeste 18 Oeste 0 -- -- 79
2017-08-16 07:00:00 18.5 9 Oeste 16 Oeste 0 -- -- 81
2017-08-16 06:00:00 18.8 5 Oeste 15 Oeste 0 -- -- 80
2017-08-16 05:00:00 18.8 6 Oeste 17 Oeste 0 -- -- 79
2017-08-16 04:00:00 19.2 5 Sudoeste 16 Oeste 0 -- -- 78
2017-08-16 03:00:00 19.2 6 Oeste 14 Oeste 0 -- -- 77
2017-08-16 02:00:00 19.4 6 Sudoeste 16 Sudoeste 0 -- -- 77
2017-08-16 01:00:00 19.1 4 Oeste 14 Oeste 0 -- -- 77
2017-08-16 00:00:00 19.1 7 Oeste 16 Oeste 0 -- -- 77
2017-08-15 23:00:00 19.7 7 Oeste 22 Sudoeste 0 -- -- 74
2017-08-15 22:00:00 20.6 9 Sudoeste 23 Sudoeste 0 -- -- 71
2017-08-15 21:00:00 23.1 10 Oeste 21 Oeste 0 -- -- 62
2017-08-15 20:00:00 26.4 11 Oeste 21 Oeste 0 -- -- 54
2017-08-15 19:00:00 27.7 9 Noroeste 18 Oeste 0 -- -- 51
2017-08-15 18:00:00 28.3 8 Norte 21 Noroeste 0 -- -- 48
2017-08-15 17:00:00 30.8 4 Norte 14 Sudeste 0 -- -- 38
2017-08-15 16:00:00 29.2 6 Este 18 Sudeste 0 -- -- 41
2017-08-15 15:00:00 28.5 9 Este 19 Este 0 -- -- 43
2017-08-15 14:00:00 26.8 8 Este 23 Este 0 -- -- 51
2017-08-15 13:00:00 24.7 9 Este 21 Este 0 -- -- 53
2017-08-15 12:00:00 23.5 8 Este 27 Este 0 -- -- 58
2017-08-15 11:00:00 22.8 13 Este 30 Sudeste 0 -- -- 61
2017-08-15 10:00:00 21.1 16 Este 32 Este 0 -- -- 66
2017-08-15 09:00:00 20.5 14 Este 32 Sudeste 0 -- -- 63
2017-08-15 08:00:00 20.5 14 Este 29 Sudeste 0 -- -- 62
2017-08-15 07:00:00 20.7 15 Este 30 Sudeste 0 -- -- 60
2017-08-15 06:00:00 21.2 16 Este 32 Sudeste 0 -- -- 59
2017-08-15 05:00:00 22.2 15 Este 29 Sudeste 0 -- -- 53
2017-08-15 04:00:00 22.6 9 Este 26 Sudeste 0 -- -- 56
2017-08-15 03:00:00 21.5 13 Este 21 Este 0 -- -- 65
2017-08-15 02:00:00 21.7 7 Este 19 Este 0 -- -- 67
2017-08-15 01:00:00 22.7 6 Este 21 Este 0 -- -- 63
2017-08-15 00:00:00 24.3 8 Este 23 Este 0 -- -- 52
2017-08-14 23:00:00 25.3 4 Norte 33 Este 0 -- -- 49
2017-08-14 22:00:00 27.7 15 Este 26 Este 0 -- -- 37
2017-08-14 21:00:00 29 4 Este 23 Sudeste 0 -- -- 32
2017-08-14 20:00:00 28.8 10 Este 32 Norte 0 -- -- 42
2017-08-14 19:00:00 32.4 13 Este 27 Este 0 -- -- 29
2017-08-14 18:00:00 33.9 16 Este 36 Este 0 -- -- 30
2017-08-14 17:00:00 32.6 18 Este 37 Este 0 -- -- 33
2017-08-14 16:00:00 32.1 17 Este 33 Este 0 -- -- 35
2017-08-14 15:00:00 30.9 15 Este 33 Este 0 -- -- 38
2017-08-14 14:00:00 28.9 18 Este 34 Este 0 -- -- 42
2017-08-14 13:00:00 27.1 19 Este 34 Este 0 -- -- 48
2017-08-14 12:00:00 25.1 17 Este 33 Este 0 -- -- 56
2017-08-14 11:00:00 23.4 17 Este 34 Este 0 -- -- 62
2017-08-14 10:00:00 22.3 14 Este 35 Este 0 -- -- 64
2017-08-14 09:00:00 20.9 17 Este 33 Este 0 -- -- 68
2017-08-14 08:00:00 19.2 13 Este 25 Este 0 -- -- 73
2017-08-14 07:00:00 19.2 13 Este 25 Este 0 -- -- 73
2017-08-14 06:00:00 19.4 11 Este 25 Este 0 -- -- 70
2017-08-14 05:00:00 17.6 6 Este 16 Sudeste 0 -- -- 76
2017-08-14 04:00:00 17.3 0 Calma 4 Oeste 0 -- -- 78
2017-08-14 03:00:00 19.3 0 Calma 5 Sudoeste 0 -- -- 68
2017-08-14 02:00:00 20.1 4 Sudoeste 7 Sudoeste 0 -- -- 65
2017-08-14 01:00:00 21.1 3 Noroeste 9 Noroeste 0 -- -- 66
2017-08-14 00:00:00 23.1 2 Noroeste 5 Oeste 0 -- -- 56
2017-08-13 23:00:00 24.8 2 Noroeste 15 Sudeste 0 -- -- 52
2017-08-13 22:00:00 26.8 6 Sudeste 13 Nordeste 0 -- -- 45
2017-08-13 21:00:00 29.4 8 Este 16 Este 0 -- -- 39
2017-08-13 20:00:00 31.4 8 Este 18 Sudeste 0 -- -- 26
2017-08-13 19:00:00 31.9 10 Este 26 Este 0 -- -- 26
2017-08-13 18:00:00 31.9 12 Este 23 Sudeste 0 -- -- 27
2017-08-13 17:00:00 31.3 11 Este 24 Este 0 -- -- 27
2017-08-13 16:00:00 30.1 11 Este 22 Este 0 -- -- 28
2017-08-13 15:00:00 28.7 12 Este 23 Sudeste 0 -- -- 30
2017-08-13 14:00:00 27.2 8 Este 16 Este 0 -- -- 31
2017-08-13 13:00:00 24.7 6 Este 14 Nordeste 0 -- -- 38
2017-08-13 12:00:00 22.1 4 Norte 14 Oeste 0 -- -- 50
2017-08-13 11:00:00 19.7 8 Noroeste 16 Oeste 0 -- -- 59
2017-08-13 10:00:00 17.7 8 Oeste 17 Oeste 0 -- -- 66
2017-08-13 09:00:00 16.1 10 Oeste 17 Oeste 0 -- -- 66
2017-08-13 08:00:00 14.6 6 Sudoeste 13 Oeste 0 -- -- 63
2017-08-13 07:00:00 14.4 4 Sudoeste 12 Sur 0 -- -- 65
2017-08-13 06:00:00 14.4 5 Sudoeste 11 Sudoeste 0 -- -- 67
2017-08-13 05:00:00 14.2 4 Noroeste 8 Oeste 0 -- -- 71
2017-08-13 04:00:00 15.8 5 Oeste 11 Oeste 0 -- -- 62
2017-08-13 03:00:00 16.5 4 Sudoeste 13 Oeste 0 -- -- 57
2017-08-13 02:00:00 17.5 6 Oeste 14 Sudoeste 0 -- -- 53
2017-08-13 01:00:00 18.4 5 Oeste 21 Sur 0 -- -- 51
2017-08-13 00:00:00 19.5 9 Sudoeste 20 Sudoeste 0 -- -- 54
2017-08-12 23:00:00 21.1 5 Sudoeste 12 Sudoeste 0 -- -- 54
2017-08-12 22:00:00 23 5 Sudoeste 14 Oeste 0 -- -- 50
2017-08-12 21:00:00 25.4 8 Noroeste 23 Noroeste 0 -- -- 41
2017-08-12 20:00:00 27.2 14 Norte 28 Noroeste 0 -- -- 34
2017-08-12 19:00:00 29.1 13 Norte 27 Norte 0 -- -- 28
2017-08-12 18:00:00 30.6 11 Norte 21 Norte 0 -- -- 25
2017-08-12 17:00:00 31.2 8 Oeste 14 Oeste 0 -- -- 19
2017-08-12 16:00:00 29.6 4 Este 16 Sudeste 0 -- -- 19
2017-08-12 15:00:00 28.1 6 Este 16 Este 0 -- -- 22
2017-08-12 14:00:00 26.5 4 Nordeste 10 Este 0 -- -- 14
2017-08-12 13:00:00 23.8 4 Oeste 10 Norte 0 -- -- 19
2017-08-12 12:00:00 21.1 5 Noroeste 16 Noroeste 0 -- -- 38
2017-08-12 11:00:00 18.4 9 Oeste 15 Oeste 0 -- -- 52
2017-08-12 10:00:00 15.1 8 Noroeste 13 Noroeste 0 -- -- 63
2017-08-12 09:00:00 12.2 6 Noroeste 10 Noroeste 0 -- -- 69
2017-08-12 08:00:00 9.7 6 Noroeste 10 Noroeste 0 -- -- 81
2017-08-12 07:00:00 9.6 4 Oeste 8 Oeste 0 -- -- 82
2017-08-12 06:00:00 10.2 3 Oeste 7 Oeste 0 -- -- 77
2017-08-12 05:00:00 11 4 Oeste 7 Oeste 0 -- -- 79
2017-08-12 04:00:00 11.9 2 Noroeste 6 Oeste 0 -- -- 76
2017-08-12 03:00:00 12.8 3 Noroeste 14 Sudoeste 0 -- -- 68
2017-08-12 02:00:00 14.8 9 Oeste 18 Oeste 0 -- -- 60
2017-08-12 01:00:00 15.4 4 Sudoeste 17 Oeste 0 -- -- 56
2017-08-12 00:00:00 16.3 6 Oeste 15 Oeste 0 -- -- 55
2017-08-11 23:00:00 17.5 6 Oeste 15 Oeste 0 -- -- 47
2017-08-11 22:00:00 18.6 8 Oeste 17 Sudoeste 0 -- -- 45
2017-08-11 21:00:00 20.9 5 Oeste 21 Norte 0 -- -- 39
2017-08-11 20:00:00 22.1 11 Norte 23 Norte 0 -- -- 38
2017-08-11 19:00:00 23 12 Norte 23 Norte 0 -- -- 34
2017-08-11 18:00:00 24.3 7 Noroeste 23 Oeste 0 -- -- 35
2017-08-11 17:00:00 23.9 12 Noroeste 28 Noroeste 0 -- -- 37
2017-08-11 16:00:00 23 13 Noroeste 26 Oeste 0 -- -- 39
2017-08-11 15:00:00 22.4 12 Noroeste 24 Oeste 0 -- -- 40
2017-08-11 14:00:00 21.3 6 Noroeste 23 Noroeste 0 -- -- 42
2017-08-11 13:00:00 20.1 11 Noroeste 26 Oeste 0 -- -- 45
2017-08-11 12:00:00 18.9 10 Noroeste 20 Oeste 0 -- -- 50
2017-08-11 11:00:00 17.3 8 Oeste 17 Oeste 0 -- -- 56
2017-08-11 10:00:00 15.7 5 Norte 14 Oeste 0 -- -- 61
2017-08-11 09:00:00 14 6 Noroeste 12 Noroeste 0 -- -- 68
2017-08-11 08:00:00 12.1 4 Noroeste 10 Oeste 0 -- -- 76
2017-08-11 07:00:00 12.4 4 Noroeste 13 Noroeste 0 -- -- 74
2017-08-11 06:00:00 12.4 5 Oeste 15 Noroeste 0 -- -- 75
2017-08-11 05:00:00 13 3 Noroeste 15 Sudoeste 0 -- -- 73
2017-08-11 04:00:00 13.8 8 Oeste 21 Oeste 0 -- -- 68
2017-08-11 03:00:00 13.9 12 Oeste 20 Oeste 0 -- -- 69
2017-08-11 02:00:00 13.8 11 Oeste 27 Oeste 0 -- -- 71
2017-08-11 01:00:00 13.9 6 Oeste 20 Oeste 0 -- -- 70
2017-08-11 00:00:00 14.6 11 Oeste 24 Noroeste 0 -- -- 67
2017-08-10 23:00:00 14.8 9 Noroeste 20 Norte 0 -- -- 64
2017-08-10 22:00:00 16 6 Noroeste 19 Noroeste 0 -- -- 61
2017-08-10 21:00:00 17.8 7 Noroeste 30 Noroeste 0 -- -- 52
2017-08-10 20:00:00 18.9 14 Noroeste 38 Norte 0 -- -- 52
2017-08-10 19:00:00 19.9 16 Norte 32 Noroeste 0 -- -- 52
2017-08-10 18:00:00 20.7 15 Noroeste 30 Noroeste 0 -- -- 49
2017-08-10 17:00:00 20.1 16 Norte 29 Noroeste 0 -- -- 51
2017-08-10 16:00:00 20.3 12 Noroeste 24 Noroeste 0 -- -- 49
2017-08-10 15:00:00 19.6 9 Noroeste 26 Oeste 0 -- -- 51
2017-08-10 14:00:00 18.7 11 Noroeste 21 Noroeste 0 -- -- 53
2017-08-10 13:00:00 18.6 12 Noroeste 26 Oeste 0 -- -- 52
2017-08-10 12:00:00 18 10 Noroeste 24 Oeste 0 -- -- 52
2017-08-10 11:00:00 17 15 Noroeste 28 Oeste 0 -- -- 58
2017-08-10 10:00:00 15.2 10 Noroeste 26 Oeste 0 -- -- 67
2017-08-10 09:00:00 15.2 15 Oeste 24 Noroeste 0 -- -- 63
2017-08-10 08:00:00 12.2 4 Noroeste 10 Noroeste 0 -- -- 76
2017-08-10 07:00:00 11.9 5 Oeste 14 Noroeste 0 -- -- 79
2017-08-10 06:00:00 12.2 5 Noroeste 14 Noroeste 0 -- -- 70
2017-08-10 05:00:00 12.1 3 Noroeste 8 Oeste 0 -- -- 71
2017-08-10 04:00:00 12.4 3 Norte 14 Oeste 0 -- -- 70
2017-08-10 03:00:00 13.3 7 Oeste 17 Sudoeste 0 -- -- 67
2017-08-10 02:00:00 13.4 9 Oeste 20 Oeste 0 -- -- 67
2017-08-10 01:00:00 13.6 9 Oeste 17 Oeste 0 -- -- 67
2017-08-10 00:00:00 13.8 10 Oeste 20 Noroeste 0 -- -- 66
2017-08-09 23:00:00 14.2 14 Noroeste 23 Oeste 0 -- -- 62
2017-08-09 22:00:00 15 10 Noroeste 35 Noroeste 0 -- -- 60
2017-08-09 21:00:00 16.4 16 Noroeste 35 Noroeste 0 -- -- 52
2017-08-09 20:00:00 18.2 15 Noroeste 33 Noroeste 0 -- -- 49
2017-08-09 19:00:00 19.2 10 Norte 32 Este 0 -- -- 46
2017-08-09 18:00:00 17.8 18 Norte 34 Norte 0 -- -- 51
2017-08-09 17:00:00 19.4 17 Noroeste 35 Noroeste 0 -- -- 41
2017-08-09 16:00:00 17 22 Noroeste 43 Noroeste 0 -- -- 53
2017-08-09 15:00:00 17.6 10 Noroeste 25 Noroeste 0 -- -- 52
2017-08-09 14:00:00 16.4 14 Noroeste 32 Noroeste 0 -- -- 59
2017-08-09 13:00:00 16.7 7 Noroeste 19 Noroeste 0 -- -- 61
2017-08-09 12:00:00 15.5 13 Noroeste 30 Norte 0 -- -- 65
2017-08-09 11:00:00 16.3 9 Noroeste 19 Oeste 0 -- -- 63
2017-08-09 10:00:00 16.2 9 Oeste 22 Oeste 0 -- -- 63
2017-08-09 09:00:00 16.2 8 Oeste 14 Oeste 0 -- -- 62
2017-08-09 08:00:00 15.7 5 Oeste 9 Noroeste 0 -- -- 64
2017-08-09 07:00:00 15.7 5 Norte 11 Norte 0 -- -- 62
2017-08-09 06:00:00 16 4 Oeste 6 Oeste 0 -- -- 63
2017-08-09 05:00:00 16.2 3 Oeste 8 Noroeste 0 -- -- 61
2017-08-09 04:00:00 16.2 3 Nordeste 6 Nordeste 0 -- -- 58
2017-08-09 03:00:00 16.4 4 Noroeste 10 Noroeste 0 -- -- 61
2017-08-09 02:00:00 16.5 4 Noroeste 6 Oeste 0 -- -- 62
2017-08-09 01:00:00 16.8 2 Noroeste 11 Oeste 0 -- -- 58
2017-08-09 00:00:00 16.9 4 Noroeste 16 Norte 0 -- -- 59
2017-08-08 23:00:00 16.9 5 Norte 13 Norte 0 -- -- 59
2017-08-08 22:00:00 17.3 4 Nordeste 17 Norte 0 -- -- 59
2017-08-08 21:00:00 18.1 10 Norte 27 Norte 0 -- -- 58
2017-08-08 20:00:00 20.5 14 Norte 24 Norte 0 -- -- 49
2017-08-08 19:00:00 21.9 10 Nordeste 23 Nordeste 0 -- -- 44
2017-08-08 18:00:00 21.9 11 Norte 33 Norte 0 -- -- 45
2017-08-08 17:00:00 21.5 15 Norte 32 Norte 0 -- -- 48
2017-08-08 16:00:00 22 9 Norte 26 Norte 0 -- -- 44
2017-08-08 15:00:00 22 9 Noroeste 25 Noroeste 0 -- -- 44
2017-08-08 14:00:00 20.6 10 Noroeste 24 Noroeste 0 -- -- 51
2017-08-08 13:00:00 19.7 8 Noroeste 17 Noroeste 0 -- -- 53
2017-08-08 12:00:00 18.2 10 Noroeste 22 Noroeste 0 -- -- 59
2017-08-08 11:00:00 17.9 12 Noroeste 24 Oeste 0 -- -- 60
2017-08-08 10:00:00 17.3 14 Noroeste 24 Oeste 0 -- -- 60
2017-08-08 09:00:00 16.1 12 Oeste 19 Oeste 0 -- -- 62
2017-08-08 08:00:00 15.7 8 Oeste 19 Oeste 0 -- -- 59
2017-08-08 07:00:00 15.4 8 Noroeste 24 Noroeste 0 -- -- 74
2017-08-08 06:00:00 16.1 11 Noroeste 24 Noroeste 0 -- -- 68
2017-08-08 05:00:00 16.6 9 Noroeste 21 Oeste 0 -- -- 74
2017-08-08 04:00:00 16.8 10 Oeste 23 Oeste 0 -- -- 73
2017-08-08 03:00:00 17.2 14 Oeste 22 Oeste 0 -- -- 71
2017-08-08 02:00:00 17.7 9 Noroeste 24 Noroeste 0 -- -- 71
2017-08-08 01:00:00 18.4 13 Noroeste 24 Oeste 0 -- -- 73
2017-08-08 00:00:00 19 13 Noroeste 21 Oeste 0 -- -- 74
2017-08-07 23:00:00 19.8 8 Oeste 28 Noroeste 0 -- -- 72
2017-08-07 22:00:00 21.1 9 Oeste 29 Oeste 0 -- -- 70
2017-08-07 21:00:00 23.1 15 Oeste 30 Oeste 0 -- -- 63
2017-08-07 20:00:00 26.6 10 Noroeste 25 Noroeste 0 -- -- 54
2017-08-07 19:00:00 31.8 6 Este 17 Este 0 -- -- 41
2017-08-07 18:00:00 31.2 9 Este 22 Este 0 -- -- 43
2017-08-07 17:00:00 30.1 9 Este 21 Este 0 -- -- 45
2017-08-07 16:00:00 29.3 9 Este 24 Este 0 -- -- 46
2017-08-07 15:00:00 28.1 7 Este 23 Sudeste 0 -- -- 47
2017-08-07 14:00:00 26 11 Este 23 Este 0 -- -- 49
2017-08-07 13:00:00 24 6 Este 15 Sudeste 0 -- -- 54
2017-08-07 12:00:00 22.6 3 Sudoeste 14 Noroeste 0 -- -- 57
2017-08-07 11:00:00 21.1 8 Oeste 13 Oeste 0 -- -- 62
2017-08-07 10:00:00 19.2 9 Oeste 16 Oeste 0 -- -- 69
2017-08-07 09:00:00 17.9 4 Noroeste 8 Noroeste 0 -- -- 76
2017-08-07 08:00:00 15.1 2 Noroeste 4 Noroeste 0 -- -- 87
2017-08-07 07:00:00 15.3 3 Noroeste 6 Noroeste 0 -- -- 85
2017-08-07 06:00:00 16.6 5 Oeste 13 Oeste 0 -- -- 78
2017-08-07 05:00:00 16.9 6 Sudoeste 14 Oeste 0 -- -- 77
2017-08-07 04:00:00 17.1 8 Sudoeste 16 Oeste 0 -- -- 76
2017-08-07 03:00:00 17.1 7 Sudoeste 18 Sudoeste 0 -- -- 75
2017-08-07 02:00:00 17.1 10 Sudoeste 22 Sudoeste 0 -- -- 75
2017-08-07 01:00:00 17.4 11 Sudoeste 21 Sudoeste 0 -- -- 73
2017-08-07 00:00:00 18.1 8 Sudoeste 23 Sudoeste 0 -- -- 69
2017-08-06 23:00:00 19.4 6 Sudoeste 17 Oeste 0 -- -- 63
2017-08-06 22:00:00 21.1 5 Oeste 14 Oeste 0 -- -- 57
2017-08-06 21:00:00 23.1 4 Noroeste 15 Noroeste 0 -- -- 52
2017-08-06 20:00:00 25 9 Norte 22 Norte 0 -- -- 47
2017-08-06 19:00:00 25.8 11 Norte 24 Norte 0 -- -- 44
2017-08-06 18:00:00 27.6 4 Noroeste 13 Oeste 0 -- -- 40
2017-08-06 17:00:00 26.9 7 Noroeste 15 Oeste 0 -- -- 40
2017-08-06 16:00:00 25.7 6 Noroeste 18 Oeste 0 -- -- 42
2017-08-06 15:00:00 24.5 6 Noroeste 23 Sudoeste 0 -- -- 45
2017-08-06 14:00:00 23.5 4 Nordeste 14 Norte 0 -- -- 47
2017-08-06 13:00:00 22.1 5 Sudoeste 14 Oeste 0 -- -- 50
2017-08-06 12:00:00 20.2 2 Noroeste 12 Oeste 0 -- -- 56
2017-08-06 11:00:00 18.8 6 Oeste 15 Noroeste 0 -- -- 61
2017-08-06 10:00:00 17.9 6 Norte 12 Oeste 0 -- -- 65
2017-08-06 09:00:00 17.2 5 Noroeste 16 Norte 0 -- -- 71
2017-08-06 08:00:00 16.5 8 Norte 20 Noroeste 0 -- -- 73
2017-08-06 07:00:00 16.4 9 Noroeste 18 Noroeste 0 -- -- 76
2017-08-06 06:00:00 16.7 10 Noroeste 18 Noroeste 0 -- -- 75
2017-08-06 05:00:00 16.9 7 Noroeste 21 Noroeste 0 -- -- 77
2017-08-06 04:00:00 17.4 11 Noroeste 20 Noroeste 0 -- -- 75
2017-08-06 03:00:00 17.9 10 Oeste 20 Noroeste 0 -- -- 75
2017-08-06 02:00:00 17.9 13 Noroeste 20 Noroeste 0 -- -- 73
2017-08-06 01:00:00 18.1 8 Oeste 18 Norte 0 -- -- 72
2017-08-06 00:00:00 17.9 0 Calma 16 Sudoeste 0 -- -- 73
2017-08-05 23:00:00 18.2 8 Oeste 18 Noroeste 0 -- -- 71
2017-08-05 22:00:00 18.3 10 Noroeste 25 Norte 0 -- -- 71
2017-08-05 21:00:00 18.7 13 Noroeste 29 Noroeste 0 -- -- 71
2017-08-05 20:00:00 19.7 14 Norte 32 Norte 0 -- -- 68
2017-08-05 19:00:00 20.2 20 Norte 34 Norte 0 -- -- 69
2017-08-05 18:00:00 21.2 17 Norte 33 Norte 0 -- -- 67
2017-08-05 17:00:00 21.7 17 Norte 34 Norte 0 -- -- 68
2017-08-05 16:00:00 23 17 Norte 36 Norte 0 -- -- 63
2017-08-05 15:00:00 24.2 17 Norte 31 Norte 0 -- -- 60
2017-08-05 14:00:00 25 14 Norte 27 Nordeste 0 -- -- 59
2017-08-05 13:00:00 24.9 10 Norte 21 Norte 0 -- -- 63
2017-08-05 12:00:00 24.2 9 Norte 22 Norte 0 -- -- 67
2017-08-05 11:00:00 23.3 6 Noroeste 13 Oeste 0 -- -- 72
2017-08-05 10:00:00 22.9 6 Oeste 19 Oeste 0 -- -- 74
2017-08-05 09:00:00 22 10 Oeste 22 Oeste 0 -- -- 76
2017-08-05 08:00:00 20.8 10 Oeste 21 Sudoeste 0 -- -- 80
2017-08-05 07:00:00 20.5 7 Sudoeste 17 Oeste 0 -- -- 80
2017-08-05 06:00:00 20.8 8 Sudoeste 18 Oeste 0 -- -- 78
2017-08-05 05:00:00 21.2 8 Sudoeste 15 Sudoeste 0 -- -- 77
2017-08-05 04:00:00 21.4 5 Sudoeste 12 Sudoeste 0 -- -- 76
2017-08-05 03:00:00 21.8 5 Sudoeste 17 Sudoeste 0 -- -- 74
2017-08-05 02:00:00 22.4 5 Sudoeste 18 Sudoeste 0 -- -- 72
2017-08-05 01:00:00 23.4 5 Sur 17 Sur 0 -- -- 68
2017-08-05 00:00:00 24.5 6 Sur 19 Sudoeste 0 -- -- 64
2017-08-04 23:00:00 26.6 8 Sur 17 Sudoeste 0 -- -- 58
2017-08-04 22:00:00 28.3 4 Nordeste 12 Este 0 -- -- 52
2017-08-04 21:00:00 30.7 6 Norte 27 Norte 0 -- -- 46
2017-08-04 20:00:00 33.1 13 Norte 29 Norte 0 -- -- 42
2017-08-04 19:00:00 35.1 14 Nordeste 22 Este 0 -- -- 34
2017-08-04 18:00:00 36 10 Noroeste 18 Norte 0 -- -- 30
2017-08-04 17:00:00 35.5 8 Noroeste 27 Sudoeste 0 -- -- 32
2017-08-04 16:00:00 34 10 Noroeste 22 Oeste 0 -- -- 34
2017-08-04 15:00:00 32.6 7 Norte 19 Noroeste 0 -- -- 36
2017-08-04 14:00:00 31.4 8 Norte 16 Oeste 0 -- -- 40
2017-08-04 13:00:00 30 8 Nordeste 15 Este 0 -- -- 43
2017-08-04 12:00:00 27.8 4 Oeste 15 Oeste 0 -- -- 48
2017-08-04 11:00:00 25.6 8 Oeste 18 Oeste 0 -- -- 54
2017-08-04 10:00:00 23.1 10 Oeste 18 Noroeste 0 -- -- 63
2017-08-04 09:00:00 21.2 12 Oeste 19 Oeste 0 -- -- 70
2017-08-04 08:00:00 19.6 8 Sudoeste 16 Sudoeste 0 -- -- 78
2017-08-04 07:00:00 19.1 8 Sudoeste 17 Oeste 0 -- -- 81
2017-08-04 06:00:00 19.4 10 Oeste 22 Oeste 0 -- -- 80
2017-08-04 05:00:00 19.7 13 Oeste 22 Oeste 0 -- -- 78
2017-08-04 04:00:00 20.2 11 Sudoeste 21 Oeste 0 -- -- 75
2017-08-04 03:00:00 20.6 11 Oeste 27 Oeste 0 -- -- 74
2017-08-04 02:00:00 21 11 Sudoeste 26 Sudoeste 0 -- -- 72
2017-08-04 01:00:00 21.6 13 Oeste 27 Oeste 0 -- -- 69
2017-08-04 00:00:00 23.1 12 Sudoeste 25 Oeste 0 -- -- 63
2017-08-03 23:00:00 24.7 9 Sudoeste 24 Oeste 0 -- -- 57
2017-08-03 22:00:00 26.8 10 Sudoeste 22 Oeste 0 -- -- 50
2017-08-03 21:00:00 30.3 10 Oeste 18 Oeste 0 -- -- 41
2017-08-03 20:00:00 32.9 8 Noroeste 23 Nordeste 0 -- -- 34
2017-08-03 19:00:00 34.7 9 Norte 22 Norte 0 -- -- 30
2017-08-03 18:00:00 36.7 4 Oeste 17 Oeste 0 -- -- 20
2017-08-03 17:00:00 35.6 8 Norte 19 Oeste 0 -- -- 23
2017-08-03 16:00:00 34.7 10 Oeste 21 Oeste 0 -- -- 23
2017-08-03 15:00:00 33.5 10 Noroeste 24 Oeste 0 -- -- 24
2017-08-03 14:00:00 31.9 13 Noroeste 23 Oeste 0 -- -- 28
2017-08-03 13:00:00 29.1 10 Noroeste 19 Noroeste 0 -- -- 35
2017-08-03 12:00:00 27.1 12 Oeste 22 Oeste 0 -- -- 40
2017-08-03 11:00:00 24.8 11 Oeste 21 Oeste 0 -- -- 51
2017-08-03 10:00:00 22.2 10 Noroeste 20 Oeste 0 -- -- 64
2017-08-03 09:00:00 20.5 6 Oeste 15 Oeste 0 -- -- 73
2017-08-03 08:00:00 19.8 6 Sudoeste 18 Oeste 0 -- -- 74
2017-08-03 07:00:00 19.5 7 Sudoeste 16 Oeste 0 -- -- 76
2017-08-03 06:00:00 19.8 7 Oeste 14 Oeste 0 -- -- 78
2017-08-03 05:00:00 20.1 7 Sudoeste 15 Oeste 0 -- -- 78
2017-08-03 04:00:00 20.7 8 Oeste 18 Oeste 0 -- -- 77
2017-08-03 03:00:00 21.1 10 Oeste 20 Oeste 0 -- -- 76
2017-08-03 02:00:00 22.1 7 Oeste 20 Sudoeste 0 -- -- 72
2017-08-03 01:00:00 22.9 9 Sudoeste 23 Sudoeste 0 -- -- 69
2017-08-03 00:00:00 23.9 11 Sudoeste 26 Sudoeste 0 -- -- 65
2017-08-02 23:00:00 25.8 10 Oeste 23 Oeste 0 -- -- 59
2017-08-02 22:00:00 30.3 8 Oeste 12 Oeste 0 -- -- 43
2017-08-02 21:00:00 33.1 4 Nordeste 10 Este 0 -- -- 31
2017-08-02 20:00:00 33.6 6 Este 17 Este 0 -- -- 31
2017-08-02 19:00:00 34.3 8 Este 19 Este 0 -- -- 33
2017-08-02 18:00:00 33.6 6 Este 21 Sudeste 0 -- -- 34
2017-08-02 17:00:00 33.3 12 Este 27 Este 0 -- -- 36
2017-08-02 16:00:00 32.6 8 Este 22 Nordeste 0 -- -- 39
2017-08-02 15:00:00 31.3 8 Este 24 Nordeste 0 -- -- 40
2017-08-02 14:00:00 29.4 9 Este 22 Este 0 -- -- 44
2017-08-02 13:00:00 27.5 6 Este 18 Este 0 -- -- 50
2017-08-02 12:00:00 24.4 3 Norte 11 Oeste 0 -- -- 59
2017-08-02 11:00:00 22.1 6 Noroeste 11 Oeste 0 -- -- 66
2017-08-02 10:00:00 20 5 Noroeste 12 Noroeste 0 -- -- 72
2017-08-02 09:00:00 18.9 5 Oeste 12 Oeste 0 -- -- 76
2017-08-02 08:00:00 16.8 0 Calma 8 Sudoeste 0 -- -- 85
2017-08-02 07:00:00 16.8 4 Sudoeste 10 Sudoeste 0 -- -- 83
2017-08-02 06:00:00 17.4 4 Sudoeste 13 Sudoeste 0 -- -- 81
2017-08-02 05:00:00 17.7 5 Sudoeste 13 Oeste 0 -- -- 80
2017-08-02 04:00:00 18.3 7 Sudoeste 16 Oeste 0 -- -- 78
2017-08-02 03:00:00 18.8 7 Sudoeste 19 Sudoeste 0 -- -- 76
2017-08-02 02:00:00 19.4 8 Sudoeste 19 Sudoeste 0 -- -- 73
2017-08-02 01:00:00 20.1 10 Sudoeste 25 Sudoeste 0 -- -- 70
2017-08-02 00:00:00 20.8 13 Sudoeste 24 Sur 0 -- -- 67
2017-08-01 23:00:00 22 12 Sudoeste 23 Oeste 0 -- -- 63
2017-08-01 22:00:00 23.6 9 Sudoeste 19 Oeste 0 -- -- 58
2017-08-01 21:00:00 26.5 9 Oeste 17 Oeste 0 -- -- 51
2017-08-01 20:00:00 28.5 7 Noroeste 21 Oeste 0 -- -- 46
2017-08-01 19:00:00 29.4 11 Noroeste 25 Noroeste 0 -- -- 44
2017-08-01 18:00:00 30.9 4 Este 14 Este 0 -- -- 38
2017-08-01 17:00:00 29.8 4 Sudeste 16 Sudeste 0 -- -- 40
2017-08-01 16:00:00 28.7 6 Este 18 Este 0 -- -- 41
2017-08-01 15:00:00 26.9 6 Norte 14 Oeste 0 -- -- 46
2017-08-01 14:00:00 25.3 4 Norte 18 Oeste 0 -- -- 51
2017-08-01 13:00:00 23.7 10 Oeste 23 Oeste 0 -- -- 58
2017-08-01 12:00:00 21.8 8 Oeste 23 Oeste 0 -- -- 62
2017-08-01 11:00:00 20.9 10 Oeste 23 Sudoeste 0 -- -- 64
2017-08-01 10:00:00 19.3 7 Sudoeste 15 Sudoeste 0 -- -- 71
2017-08-01 09:00:00 18.3 7 Oeste 17 Oeste 0 -- -- 74
2017-08-01 08:00:00 17.4 10 Oeste 16 Oeste 0 -- -- 78
2017-08-01 07:00:00 16.7 5 Oeste 14 Oeste 0 -- -- 80
2017-08-01 06:00:00 17 6 Oeste 19 Oeste 0 -- -- 78
2017-08-01 05:00:00 17.2 11 Oeste 23 Oeste 0 -- -- 77
2017-08-01 04:00:00 17.5 9 Oeste 21 Sudoeste 0 -- -- 76
2017-08-01 03:00:00 17.8 10 Oeste 18 Oeste 0 -- -- 75
2017-08-01 02:00:00 18.5 10 Oeste 18 Sudoeste 0 -- -- 73
2017-08-01 01:00:00 18.8 12 Oeste 18 Oeste 0 -- -- 72
2017-08-01 00:00:00 18.9 9 Oeste 21 Oeste 0 -- -- 74
2017-07-31 23:00:00 19.6 13 Oeste 25 Oeste 0 -- -- 71
2017-07-31 22:00:00 20.9 14 Oeste 26 Sudoeste 0 -- -- 67
2017-07-31 21:00:00 23 16 Oeste 24 Oeste 0 -- -- 60
2017-07-31 20:00:00 26.4 11 Oeste 25 Noroeste 0 -- -- 52
2017-07-31 19:00:00 29 12 Noroeste 20 Oeste 0 -- -- 45
2017-07-31 18:00:00 29.7 10 Noroeste 22 Oeste 0 -- -- 44
2017-07-31 17:00:00 29.1 9 Noroeste 21 Oeste 0 -- -- 45
2017-07-31 16:00:00 27.7 7 Noroeste 17 Noroeste 0 -- -- 47
2017-07-31 15:00:00 26.6 3 Oeste 21 Noroeste 0 -- -- 49
2017-07-31 14:00:00 24.9 12 Noroeste 25 Oeste 0 -- -- 54
2017-07-31 13:00:00 23.9 9 Noroeste 18 Oeste 0 -- -- 55
2017-07-31 12:00:00 22.2 6 Oeste 14 Oeste 0 -- -- 60
2017-07-31 11:00:00 21.7 5 Oeste 17 Oeste 0 -- -- 60
2017-07-31 10:00:00 20.4 5 Oeste 13 Noroeste 0 -- -- 66
2017-07-31 09:00:00 19.1 5 Sudoeste 16 Sudoeste 0 -- -- 70
2017-07-31 08:00:00 18.5 8 Sudoeste 15 Oeste 0 -- -- 73
2017-07-31 07:00:00 18.3 5 Sudoeste 14 Sudoeste 0 -- -- 73
2017-07-31 06:00:00 18.2 6 Sudoeste 14 Sudoeste 0 -- -- 72
2017-07-31 05:00:00 18.2 5 Sudoeste 14 Sudoeste 0 -- -- 73
2017-07-31 04:00:00 18.1 6 Oeste 14 Sudoeste 0 -- -- 72
2017-07-31 03:00:00 18.1 5 Sudoeste 18 Sudoeste 0 -- -- 71
2017-07-31 02:00:00 18.1 8 Oeste 21 Oeste 0 -- -- 73
2017-07-31 01:00:00 17.9 9 Oeste 24 Oeste 0 -- -- 74
2017-07-31 00:00:00 18.3 12 Oeste 29 Sudoeste 0 -- -- 73
2017-07-30 23:00:00 19.1 12 Oeste 25 Oeste 0 -- -- 71
2017-07-30 22:00:00 20.4 12 Oeste 35 Oeste 0 -- -- 66
2017-07-30 21:00:00 23.1 16 Oeste 30 Oeste 0 -- -- 59
2017-07-30 20:00:00 26 21 Oeste 37 Oeste 0 -- -- 50
2017-07-30 19:00:00 31.2 13 Noroeste 30 Noroeste 0 -- -- 35
2017-07-30 18:00:00 32.7 18 Noroeste 30 Norte 0 -- -- 32
2017-07-30 17:00:00 35.3 12 Noroeste 24 Noroeste 0 -- -- 27
2017-07-30 16:00:00 34.6 7 Norte 14 Oeste 0 -- -- 24
2017-07-30 15:00:00 32.3 3 Norte 13 Oeste 0 -- -- 28
2017-07-30 14:00:00 30.7 8 Oeste 16 Oeste 0 -- -- 32
2017-07-30 13:00:00 28.2 6 Oeste 14 Oeste 0 -- -- 37
2017-07-30 12:00:00 26.1 7 Noroeste 14 Noroeste 0 -- -- 45
2017-07-30 11:00:00 24.4 8 Oeste 15 Oeste 0 -- -- 54
2017-07-30 10:00:00 22.6 9 Oeste 14 Noroeste 0 -- -- 59
2017-07-30 09:00:00 21.1 12 Oeste 19 Oeste 0 -- -- 64
2017-07-30 08:00:00 20.2 8 Oeste 15 Oeste 0 -- -- 67
2017-07-30 07:00:00 20.1 5 Sudoeste 21 Oeste 0 -- -- 67
2017-07-30 06:00:00 20.7 10 Sudoeste 30 Oeste 0 -- -- 64
2017-07-30 05:00:00 21.6 14 Oeste 32 Sudoeste 0 -- -- 62
2017-07-30 04:00:00 21.8 12 Oeste 24 Oeste 0 -- -- 62
2017-07-30 03:00:00 21.9 5 Norte 13 Oeste 0 -- -- 62
2017-07-30 02:00:00 23 4 Oeste 9 Noroeste 0 -- -- 56
2017-07-30 01:00:00 24.4 4 Oeste 10 Oeste 0 -- -- 51
2017-07-30 00:00:00 25.6 3 Oeste 9 Oeste 0 -- -- 44
2017-07-29 23:00:00 27.5 4 Oeste 10 Sur 0 -- -- 33
2017-07-29 22:00:00 30.4 0 Calma 11 Oeste 0 -- -- 27
2017-07-29 21:00:00 34.1 6 Oeste 13 Oeste 0 -- -- 22
2017-07-29 20:00:00 34.5 9 Oeste 28 Oeste 0 -- -- 21
2017-07-29 19:00:00 36.7 16 Oeste 30 Oeste 0 -- -- 18
2017-07-29 18:00:00 37.2 12 Oeste 25 Oeste 0 -- -- 19
2017-07-29 17:00:00 36.3 9 Oeste 16 Oeste 0 -- -- 19
2017-07-29 16:00:00 34.7 6 Nordeste 13 Este 0 -- -- 23
2017-07-29 15:00:00 33.2 7 Este 14 Este 0 -- -- 26
2017-07-29 14:00:00 30.9 4 Nordeste 13 Sudeste 0 -- -- 29
2017-07-29 13:00:00 29 4 Sudeste 10 Sudeste 0 -- -- 31
2017-07-29 12:00:00 25.9 3 Oeste 12 Oeste 0 -- -- 38
2017-07-29 11:00:00 23.4 8 Noroeste 13 Noroeste 0 -- -- 42
2017-07-29 10:00:00 20.5 7 Noroeste 15 Noroeste 0 -- -- 52
2017-07-29 09:00:00 18.6 3 Noroeste 7 Oeste 0 -- -- 60
2017-07-29 08:00:00 16.7 2 Noroeste 8 Oeste 0 -- -- 68
2017-07-29 07:00:00 16.2 4 Oeste 9 Noroeste 0 -- -- 69
2017-07-29 06:00:00 17.3 0 Calma 9 Sudoeste 0 -- -- 63
2017-07-29 05:00:00 19.1 5 Sudoeste 10 Sudoeste 0 -- -- 54
2017-07-29 04:00:00 19.8 5 Oeste 12 Sudoeste 0 -- -- 51
2017-07-29 03:00:00 20.6 7 Sudoeste 15 Sudoeste 0 -- -- 49
2017-07-29 02:00:00 21.2 8 Sudoeste 17 Sudoeste 0 -- -- 51
2017-07-29 01:00:00 22.1 6 Sudoeste 23 Sudoeste 0 -- -- 54
2017-07-29 00:00:00 23.3 9 Sur 23 Sudoeste 0 -- -- 52
2017-07-28 23:00:00 24.7 7 Sudoeste 17 Sudoeste 0 -- -- 44
2017-07-28 22:00:00 27.2 4 Este 10 Norte 0 -- -- 28
2017-07-28 21:00:00 29.3 5 Noroeste 27 Norte 0 -- -- 30
2017-07-28 20:00:00 31.1 11 Norte 24 Norte 0 -- -- 33
2017-07-28 19:00:00 33 11 Nordeste 23 Nordeste 0 -- -- 36
2017-07-28 18:00:00 35.1 9 Oeste 18 Noroeste 0 -- -- 28
2017-07-28 17:00:00 34.2 9 Oeste 18 Oeste 0 -- -- 30
2017-07-28 16:00:00 32.4 8 Oeste 15 Noroeste 0 -- -- 35
2017-07-28 15:00:00 30.3 8 Oeste 19 Oeste 0 -- -- 41
2017-07-28 14:00:00 28.9 8 Oeste 19 Oeste 0 -- -- 46
2017-07-28 13:00:00 26.9 7 Oeste 19 Oeste 0 -- -- 52
2017-07-28 12:00:00 25 8 Oeste 18 Oeste 0 -- -- 59
2017-07-28 11:00:00 23.1 7 Noroeste 15 Oeste 0 -- -- 64
2017-07-28 10:00:00 21.7 9 Noroeste 15 Oeste 0 -- -- 73
2017-07-28 09:00:00 20.1 6 Noroeste 12 Noroeste 0 -- -- 80
2017-07-28 08:00:00 17.4 0 Calma 3 Noroeste 0 -- -- 91
2017-07-28 07:00:00 16.6 0 Calma 5 Oeste 0 -- -- 91
2017-07-28 06:00:00 17.3 5 Oeste 7 Oeste 0 -- -- 88
2017-07-28 05:00:00 18.1 4 Oeste 7 Oeste 0 -- -- 85
2017-07-28 04:00:00 18.8 3 Noroeste 6 Oeste 0 -- -- 83
2017-07-28 03:00:00 19.3 0 Calma 9 Oeste 0 -- -- 80
2017-07-28 02:00:00 19.8 4 Noroeste 19 Sur 0 -- -- 78
2017-07-28 01:00:00 20.5 8 Sur 21 Sudoeste 0 -- -- 75
2017-07-28 00:00:00 21.6 9 Sur 23 Sudoeste 0 -- -- 70
2017-07-27 23:00:00 23.5 6 Sudoeste 21 Sudoeste 0 -- -- 62
2017-07-27 22:00:00 25.7 4 Sudoeste 13 Sudoeste 0 -- -- 56
2017-07-27 21:00:00 28.2 3 Noroeste 23 Norte 0 -- -- 47
2017-07-27 20:00:00 29.4 15 Norte 27 Norte 0 -- -- 43
2017-07-27 19:00:00 33.2 11 Nordeste 22 Este 0 -- -- 30
2017-07-27 18:00:00 34 11 Este 23 Nordeste 0 -- -- 28
2017-07-27 17:00:00 34.5 4 Norte 18 Oeste 0 -- -- 23
2017-07-27 16:00:00 33 4 Norte 13 Noroeste 0 -- -- 24
2017-07-27 15:00:00 31.6 5 Oeste 17 Oeste 0 -- -- 27
2017-07-27 14:00:00 30 3 Sudoeste 13 Este 0 -- -- 28
2017-07-27 13:00:00 28 5 Noroeste 11 Noroeste 0 -- -- 33
2017-07-27 12:00:00 25.9 3 Norte 10 Oeste 0 -- -- 39
2017-07-27 11:00:00 22.9 5 Noroeste 12 Noroeste 0 -- -- 50
2017-07-27 10:00:00 20.2 6 Noroeste 9 Noroeste 0 -- -- 59
2017-07-27 09:00:00 17.4 2 Noroeste 8 Oeste 0 -- -- 68
2017-07-27 08:00:00 14.9 4 Oeste 6 Oeste 0 -- -- 78
2017-07-27 07:00:00 13.7 3 Oeste 8 Oeste 0 -- -- 82
2017-07-27 06:00:00 14.3 2 Oeste 5 Oeste 0 -- -- 83
2017-07-27 05:00:00 15.4 3 Oeste 6 Sudoeste 0 -- -- 75
2017-07-27 04:00:00 16.2 4 Oeste 5 Oeste 0 -- -- 73
2017-07-27 03:00:00 17.3 3 Oeste 7 Oeste 0 -- -- 70
2017-07-27 02:00:00 18.9 2 Oeste 6 Sudoeste 0 -- -- 64
2017-07-27 01:00:00 20.3 0 Calma 6 Sudoeste 0 -- -- 57
2017-07-27 00:00:00 22.1 5 Sur 12 Sur 0 -- -- 50
2017-07-26 23:00:00 22.8 2 Sudoeste 9 Sudoeste 0 -- -- 43
2017-07-26 22:00:00 25.2 3 Sudoeste 8 Nordeste 0 -- -- 38
2017-07-26 21:00:00 26.3 5 Norte 23 Norte 0 -- -- 35
2017-07-26 20:00:00 27.9 14 Norte 27 Norte 0 -- -- 39
2017-07-26 19:00:00 29.6 9 Nordeste 20 Norte 0 -- -- 40
2017-07-26 18:00:00 29.7 11 Nordeste 20 Nordeste 0 -- -- 38
2017-07-26 17:00:00 30.2 8 Noroeste 21 Noroeste 0 -- -- 35
2017-07-26 16:00:00 29.5 9 Noroeste 22 Oeste 0 -- -- 36
2017-07-26 15:00:00 28.1 8 Noroeste 22 Oeste 0 -- -- 40
2017-07-26 14:00:00 26.7 9 Oeste 21 Sudoeste 0 -- -- 44
2017-07-26 13:00:00 24.6 7 Noroeste 15 Oeste 0 -- -- 48
2017-07-26 12:00:00 22.5 4 Noroeste 17 Oeste 0 -- -- 50
2017-07-26 11:00:00 20 5 Oeste 19 Oeste 0 -- -- 59
2017-07-26 10:00:00 17.3 9 Noroeste 15 Oeste 0 -- -- 69
2017-07-26 09:00:00 14.5 5 Noroeste 12 Oeste 0 -- -- 77
2017-07-26 08:00:00 13.3 4 Noroeste 10 Oeste 0 -- -- 81
2017-07-26 07:00:00 12.4 5 Noroeste 8 Norte 0 -- -- 84
2017-07-26 06:00:00 13.6 4 Noroeste 16 Sudoeste 0 -- -- 78
2017-07-26 05:00:00 14.1 10 Oeste 19 Oeste 0 -- -- 77
2017-07-26 04:00:00 14.6 8 Sudoeste 17 Sudoeste 0 -- -- 76
2017-07-26 03:00:00 15.1 11 Oeste 23 Sudoeste 0 -- -- 73
2017-07-26 02:00:00 15.2 8 Oeste 17 Sudoeste 0 -- -- 73
2017-07-26 01:00:00 15.6 4 Sudoeste 17 Oeste 0 -- -- 71
2017-07-26 00:00:00 16.3 9 Oeste 16 Oeste 0 -- -- 70
2017-07-25 23:00:00 16.8 2 Noroeste 18 Noroeste 0 -- -- 68
2017-07-25 22:00:00 17.9 6 Noroeste 22 Noroeste 0 -- -- 62
2017-07-25 21:00:00 19.8 8 Norte 18 Noroeste 0 -- -- 57
2017-07-25 20:00:00 21 10 Noroeste 22 Noroeste 0 -- -- 52
2017-07-25 19:00:00 21.4 13 Noroeste 28 Noroeste 0 -- -- 50
2017-07-25 18:00:00 21.3 12 Noroeste 26 Norte 0 -- -- 53
2017-07-25 17:00:00 21.1 11 Norte 22 Noroeste 0 -- -- 51
2017-07-25 16:00:00 20.6 10 Oeste 19 Noroeste 0 -- -- 55
2017-07-25 15:00:00 20.1 11 Noroeste 21 Noroeste 0 -- -- 56
2017-07-25 14:00:00 19.5 8 Noroeste 22 Noroeste 0 -- -- 57
2017-07-25 13:00:00 18.4 10 Noroeste 22 Oeste 0 -- -- 61
2017-07-25 12:00:00 17.4 10 Noroeste 19 Noroeste 0 -- -- 65
2017-07-25 11:00:00 17.3 12 Oeste 20 Oeste 0 -- -- 64
2017-07-25 10:00:00 16.7 12 Noroeste 24 Oeste 0 -- -- 67
2017-07-25 09:00:00 16.5 11 Noroeste 23 Noroeste 0 -- -- 67
2017-07-25 08:00:00 16.1 10 Noroeste 23 Oeste 0 -- -- 68
2017-07-25 07:00:00 15.6 9 Noroeste 24 Noroeste 0 -- -- 72
2017-07-25 06:00:00 15.7 9 Noroeste 18 Noroeste 0 -- -- 76
2017-07-25 05:00:00 15.5 9 Oeste 17 Oeste 0 -- -- 82
2017-07-25 04:00:00 15.9 14 Oeste 22 Oeste 0 -- -- 83
2017-07-25 03:00:00 16.9 9 Oeste 26 Norte 0 -- -- 71
2017-07-25 02:00:00 16.9 16 Noroeste 29 Noroeste 0 -- -- 69
2017-07-25 01:00:00 17.4 8 Oeste 22 Noroeste 0 -- -- 74
2017-07-25 00:00:00 17.7 9 Noroeste 22 Oeste 0 -- -- 72
2017-07-24 23:00:00 17.9 12 Noroeste 34 Oeste 0 -- -- 70
2017-07-24 22:00:00 18.7 15 Noroeste 33 Noroeste 0 -- -- 67
2017-07-24 21:00:00 20.3 16 Noroeste 33 Noroeste 0 -- -- 61
2017-07-24 20:00:00 22.2 14 Noroeste 35 Oeste 0 -- -- 54
2017-07-24 19:00:00 22.3 17 Noroeste 40 Norte 0 -- -- 55
2017-07-24 18:00:00 23.3 18 Norte 40 Norte 0 -- -- 53
2017-07-24 17:00:00 23.7 16 Norte 39 Noroeste 0 -- -- 53
2017-07-24 16:00:00 23.7 15 Norte 36 Noroeste 0 -- -- 53
2017-07-24 15:00:00 24 20 Noroeste 33 Oeste 0 -- -- 48
2017-07-24 14:00:00 23.6 14 Norte 29 Norte 0 -- -- 53
2017-07-24 13:00:00 23.8 8 Norte 27 Noroeste 0 -- -- 53
2017-07-24 12:00:00 22.2 9 Noroeste 22 Oeste 0 -- -- 58
2017-07-24 11:00:00 21 9 Noroeste 24 Noroeste 0 -- -- 65
2017-07-24 10:00:00 20.8 13 Oeste 23 Oeste 0 -- -- 67
2017-07-24 09:00:00 19.3 8 Noroeste 18 Noroeste 0 -- -- 75
2017-07-24 08:00:00 19.2 8 Noroeste 16 Sudoeste 0 -- -- 71
2017-07-24 07:00:00 19.1 6 Oeste 16 Oeste 0 -- -- 71
2017-07-24 06:00:00 18.7 4 Noroeste 10 Noroeste 0 -- -- 73
2017-07-24 05:00:00 18.8 6 Noroeste 14 Oeste 0 -- -- 72
2017-07-24 04:00:00 18.9 8 Noroeste 13 Noroeste 0 -- -- 72
2017-07-24 03:00:00 19.3 5 Oeste 12 Oeste 0 -- -- 69
2017-07-24 02:00:00 19.1 8 Oeste 15 Sudoeste 0 -- -- 69
2017-07-24 01:00:00 19.6 9 Oeste 19 Oeste 0 -- -- 66
2017-07-24 00:00:00 20.2 9 Oeste 18 Oeste 0 -- -- 63
2017-07-23 23:00:00 20.5 6 Oeste 13 Oeste 0 -- -- 61
2017-07-23 22:00:00 21.5 5 Noroeste 15 Norte 0 -- -- 56
2017-07-23 21:00:00 23.1 9 Norte 25 Norte 0 -- -- 49
2017-07-23 20:00:00 25.1 10 Norte 29 Norte 0 -- -- 42
2017-07-23 19:00:00 26.8 13 Norte 26 Norte 0 -- -- 39
2017-07-23 18:00:00 27.8 10 Noroeste 23 Noroeste 0 -- -- 37
2017-07-23 17:00:00 28.1 7 Noroeste 23 Noroeste 0 -- -- 35
2017-07-23 16:00:00 27.9 9 Noroeste 21 Noroeste 0 -- -- 35
2017-07-23 15:00:00 27.3 10 Oeste 20 Oeste 0 -- -- 36
2017-07-23 14:00:00 25.6 10 Oeste 21 Oeste 0 -- -- 42
2017-07-23 13:00:00 23.7 9 Oeste 19 Oeste 0 -- -- 47
2017-07-23 12:00:00 21.8 10 Oeste 20 Oeste 0 -- -- 52
2017-07-23 11:00:00 20.3 7 Sur 19 Sudoeste 0 -- -- 58
2017-07-23 10:00:00 18.7 6 Oeste 12 Oeste 0 -- -- 66
2017-07-23 09:00:00 17.6 4 Sudoeste 14 Sudoeste 0 -- -- 71
2017-07-23 08:00:00 16.7 5 Oeste 10 Oeste 0 -- -- 75
2017-07-23 07:00:00 16.3 4 Sudoeste 15 Oeste 0 -- -- 76
2017-07-23 06:00:00 16.9 6 Oeste 12 Sudoeste 0 -- -- 75
2017-07-23 05:00:00 17.2 5 Oeste 14 Oeste 0 -- -- 74
2017-07-23 04:00:00 17.6 6 Oeste 10 Oeste 0 -- -- 72
2017-07-23 03:00:00 17.7 5 Noroeste 13 Noroeste 0 -- -- 72
2017-07-23 02:00:00 18 5 Oeste 10 Oeste 0 -- -- 70
2017-07-23 01:00:00 17.8 4 Sudoeste 9 Sudoeste 0 -- -- 72
2017-07-23 00:00:00 17.5 2 Noroeste 8 Oeste 0 -- -- 75
2017-07-22 23:00:00 18.6 3 Oeste 10 Norte 0 -- -- 72
2017-07-22 22:00:00 20.2 3 Nordeste 13 Este 0 -- -- 64
2017-07-22 21:00:00 23.4 11 Oeste 21 Noroeste 0 -- -- 54
2017-07-22 20:00:00 26.7 12 Noroeste 25 Noroeste 0 -- -- 45
2017-07-22 19:00:00 28.6 9 Norte 29 Norte 0 -- -- 40
2017-07-22 18:00:00 30.5 13 Norte 26 Norte 0 -- -- 32
2017-07-22 17:00:00 30.6 7 Noroeste 13 Sudeste 0 -- -- 28
2017-07-22 16:00:00 29.9 8 Noroeste 17 Noroeste 0 -- -- 28
2017-07-22 15:00:00 28.5 5 Sudoeste 10 Noroeste 0 -- -- 31
2017-07-22 14:00:00 25.7 5 Noroeste 14 Oeste 0 -- -- 35
2017-07-22 13:00:00 23.8 3 Noroeste 12 Noroeste 0 -- -- 41
2017-07-22 12:00:00 21.3 5 Noroeste 16 Oeste 0 -- -- 50
2017-07-22 11:00:00 18.9 9 Oeste 17 Oeste 0 -- -- 61
2017-07-22 10:00:00 16.9 7 Oeste 13 Oeste 0 -- -- 69
2017-07-22 09:00:00 14.3 4 Noroeste 10 Noroeste 0 -- -- 81
2017-07-22 08:00:00 13.2 6 Oeste 10 Oeste 0 -- -- 84
2017-07-22 07:00:00 12.3 3 Oeste 8 Oeste 0 -- -- 90
2017-07-22 06:00:00 13 4 Oeste 9 Oeste 0 -- -- 87
2017-07-22 05:00:00 13.6 4 Oeste 7 Noroeste 0 -- -- 84
2017-07-22 04:00:00 14.4 4 Noroeste 9 Oeste 0 -- -- 79
2017-07-22 03:00:00 15.1 4 Noroeste 12 Sudoeste 0 -- -- 76
2017-07-22 02:00:00 16.6 5 Sudoeste 16 Sudoeste 0 -- -- 67
2017-07-22 01:00:00 17.3 7 Sudoeste 21 Sudoeste 0 -- -- 64
2017-07-22 00:00:00 18.3 10 Sudoeste 19 Sur 0 -- -- 61